Time;durP1;ratioP1;P1;durP2;ratioP2;P2;SDS_P1;SDS_P2;PMS_P1;PMS_P2;Temp;Humidity;BMP_temperature;BMP_pressure;BME280_temperature;BME280_humidity;BME280_pressure;Samples;Min_cycle;Max_cycle;Signal;HPM_P1;HPM_P2
2022/06/11 00:01:09;;;;;;;4.10;3.80;;;19.20;52.00;;;;;;4934527;29;20200;-68
2022/06/11 00:03:34;;;;;;;5.47;4.27;;;19.10;52.10;;;;;;4934527;29;20177;-70
2022/06/11 00:06:00;;;;;;;5.75;4.10;;;19.10;57.80;;;;;;4934912;29;20201;-69
2022/06/11 00:08:26;;;;;;;5.90;3.85;;;19.10;55.00;;;;;;4934483;29;20354;-70
2022/06/11 00:10:52;;;;;;;11.43;3.90;;;19.20;53.90;;;;;;4934732;29;20629;-69
2022/06/11 00:13:22;;;;;;;4.80;3.60;;;19.20;51.50;;;;;;4926776;29;20329;-70
2022/06/11 00:15:51;;;;;;;7.05;4.03;;;19.10;50.80;;;;;;4915313;29;20233;-69
2022/06/11 00:18:17;;;;;;;6.17;3.80;;;19.00;54.50;;;;;;4915612;29;20672;-70
2022/06/11 00:20:43;;;;;;;6.27;4.20;;;19.00;57.10;;;;;;4915424;29;20186;-69
2022/06/11 00:23:09;;;;;;;4.33;3.97;;;19.00;58.50;;;;;;4915441;29;20253;-69
2022/06/11 00:25:35;;;;;;;6.28;4.57;;;18.90;58.10;;;;;;4915093;29;20338;-70
2022/06/11 00:28:02;;;;;;;5.23;3.90;;;18.90;59.80;;;;;;4983604;28;20258;-69
2022/06/11 00:30:28;;;;;;;6.40;4.00;;;18.90;61.60;;;;;;4993638;28;20189;-69
2022/06/11 00:32:55;;;;;;;5.10;4.60;;;18.80;64.20;;;;;;4994016;28;20171;-70
2022/06/11 00:35:22;;;;;;;7.53;4.30;;;18.90;68.80;;;;;;4994204;28;20206;-69
2022/06/11 00:37:48;;;;;;;6.13;3.53;;;18.90;65.10;;;;;;4994424;28;20198;-69
2022/06/11 00:40:18;;;;;;;6.60;3.97;;;19.00;59.20;;;;;;4994045;28;20262;-69
2022/06/11 00:42:43;;;;;;;6.15;3.72;;;18.90;64.30;;;;;;4993500;28;20179;-69
2022/06/11 00:45:21;;;;;;;6.97;3.75;;;18.90;65.20;;;;;;4992425;28;20767;-69
2022/06/11 00:48:02;;;;;;;7.30;3.93;;;18.90;63.30;;;;;;4994076;28;20206;-70
2022/06/11 00:50:59;;;;;;;5.35;4.25;;;18.80;66.70;;;;;;4993909;28;20175;-70
2022/06/11 00:53:33;;;;;;;4.87;3.90;;;18.90;65.20;;;;;;4993615;28;20170;-70
2022/06/11 00:56:00;;;;;;;6.35;4.30;;;19.00;61.10;;;;;;4994031;28;20205;-69
2022/06/11 00:58:33;;;;;;;4.43;3.73;;;19.10;58.40;;;;;;4993832;28;20172;-69
2022/06/11 01:01:01;;;;;;;13.87;4.50;;;19.10;57.20;;;;;;4993583;28;20198;-69
2022/06/11 01:03:32;;;;;;;6.15;4.40;;;19.20;56.80;;;;;;4992513;28;20171;-70
2022/06/11 01:06:12;;;;;;;6.18;3.85;;;19.20;54.90;;;;;;4993741;28;20175;-70
2022/06/11 01:08:46;;;;;;;6.15;4.50;;;19.20;53.40;;;;;;4993933;28;20225;-69
2022/06/11 01:11:41;;;;;;;4.50;4.10;;;19.20;50.90;;;;;;4994057;28;20637;-70
2022/06/11 01:14:14;;;;;;;4.95;4.10;;;19.30;47.70;;;;;;4992233;28;20658;-70
2022/06/11 01:17:06;;;;;;;5.93;4.25;;;19.20;46.70;;;;;;4993773;28;20214;-69
2022/06/11 01:19:32;;;;;;;5.55;4.25;;;19.20;52.40;;;;;;4975224;28;20180;-70
2022/06/11 01:22:15;;;;;;;5.60;4.17;;;19.10;51.50;;;;;;4975444;28;20188;-69
2022/06/11 01:24:50;;;;;;;4.97;4.07;;;19.10;55.10;;;;;;4991132;28;20222;-69
2022/06/11 01:27:50;;;;;;;6.47;4.60;;;19.00;59.10;;;;;;4991595;28;20175;-69
2022/06/11 01:30:43;;;;;;;5.55;4.22;;;19.00;61.40;;;;;;4975309;28;20183;-70
2022/06/11 01:33:20;;;;;;;7.20;4.47;;;19.00;59.50;;;;;;4991297;28;20194;-70
2022/06/11 01:36:14;;;;;;;6.43;4.90;;;19.00;66.20;;;;;;4991465;28;20217;-69
2022/06/11 01:38:52;;;;;;;6.25;4.47;;;19.00;62.20;;;;;;4991450;28;20226;-71
2022/06/11 01:41:25;;;;;;;6.70;4.70;;;19.00;64.80;;;;;;4991339;28;20249;-70
2022/06/11 01:43:55;;;;;;;5.13;4.32;;;19.10;62.90;;;;;;4994207;28;20175;-69
2022/06/11 01:46:29;;;;;;;4.45;4.05;;;19.10;57.80;;;;;;4995167;28;20226;-70
2022/06/11 01:49:01;;;;;;;5.75;4.40;;;19.10;60.70;;;;;;4995236;28;20171;-70
2022/06/11 01:51:59;;;;;;;4.40;4.00;;;19.10;58.90;;;;;;4994968;28;20235;-70
2022/06/11 01:54:30;;;;;;;4.70;4.30;;;19.20;54.20;;;;;;4937075;29;20264;-69
2022/06/11 01:57:08;;;;;;;5.22;4.72;;;19.10;56.50;;;;;;4936905;29;20186;-69
2022/06/11 01:59:34;;;;;;;6.20;4.95;;;19.00;60.50;;;;;;4937010;29;20177;-70
2022/06/11 02:02:48;;;;;;;7.20;4.72;;;19.00;66.70;;;;;;4936743;29;20680;-70
2022/06/11 02:05:50;;;;;;;4.67;4.23;;;19.00;63.60;;;;;;4917855;29;20189;-70
2022/06/11 02:08:37;;;;;;;6.47;4.30;;;19.10;62.20;;;;;;4917800;29;20200;-69
2022/06/11 02:11:11;;;;;;;9.10;4.10;;;19.10;55.80;;;;;;4901952;29;20272;-69
2022/06/11 02:13:47;;;;;;;4.20;3.75;;;19.00;57.60;;;;;;4917463;29;20520;-70
2022/06/11 02:16:28;;;;;;;4.47;3.63;;;19.00;59.50;;;;;;4917664;29;20216;-71
2022/06/11 02:18:55;;;;;;;5.93;4.00;;;19.10;55.00;;;;;;4917657;29;20342;-69
2022/06/11 02:21:26;;;;;;;5.47;3.53;;;19.10;56.70;;;;;;4917602;29;20170;-69
2022/06/11 02:23:58;;;;;;;4.60;3.70;;;19.10;56.90;;;;;;4901835;29;20217;-70
2022/06/11 02:26:29;;;;;;;4.57;4.10;;;19.10;57.00;;;;;;4917254;29;20190;-69
2022/06/11 02:28:57;;;;;;;3.87;3.53;;;19.10;55.10;;;;;;4917437;29;20537;-70
2022/06/11 02:31:27;;;;;;;8.57;3.60;;;19.00;57.20;;;;;;4940664;29;20185;-70
2022/06/11 02:33:53;;;;;;;5.20;3.70;;;19.00;52.90;;;;;;4955671;29;20189;-69
2022/06/11 02:36:27;;;;;;;4.53;3.50;;;18.90;44.30;;;;;;4939479;29;20568;-69
2022/06/11 02:38:54;;;;;;;4.20;3.10;;;18.90;40.80;;;;;;4970497;28;20286;-70
2022/06/11 02:41:27;;;;;;;5.03;3.40;;;18.90;39.10;;;;;;4994598;28;20207;-70
2022/06/11 02:43:53;;;;;;;4.67;3.30;;;18.90;37.30;;;;;;4996149;28;20167;-70
2022/06/11 02:49:04;;;;;;;4.70;3.40;;;18.90;28.50;;;;;;4996367;28;20180;-70
2022/06/11 02:51:31;;;;;;;3.05;2.85;;;18.90;34.30;;;;;;4995953;28;20631;-69
2022/06/11 02:53:57;;;;;;;3.20;2.90;;;18.90;29.40;;;;;;4995834;28;20171;-69
2022/06/11 02:56:23;;;;;;;4.97;3.23;;;18.80;29.20;;;;;;4995229;28;20211;-68
2022/06/11 02:58:49;;;;;;;3.80;3.20;;;18.80;28.80;;;;;;4995729;28;20225;-70
2022/06/11 03:01:16;;;;;;;7.03;3.83;;;18.80;29.00;;;;;;4995844;28;20193;-70
2022/06/11 03:03:42;;;;;;;5.10;3.53;;;18.70;34.90;;;;;;4995668;28;20693;-68
2022/06/11 03:06:09;;;;;;;4.20;3.30;;;18.70;44.90;;;;;;4995674;28;20238;-69
2022/06/11 03:08:35;;;;;;;5.23;3.50;;;18.70;46.00;;;;;;4995818;28;20182;-69
2022/06/11 03:11:00;;;;;;;4.33;3.90;;;18.80;43.50;;;;;;4995179;28;20172;-69
2022/06/11 03:13:28;;;;;;;6.93;3.87;;;18.90;41.20;;;;;;4995309;28;20537;-69
2022/06/11 03:15:54;;;;;;;7.63;3.77;;;18.90;39.30;;;;;;4995637;28;20210;-69
2022/06/11 03:18:22;;;;;;;6.10;3.73;;;19.00;36.30;;;;;;4995770;28;20175;-71
2022/06/11 03:20:48;;;;;;;5.67;4.10;;;19.00;38.50;;;;;;4995131;28;20237;-69
2022/06/11 03:23:13;;;;;;;7.07;4.10;;;19.10;36.40;;;;;;4995294;28;20525;-70
2022/06/11 03:25:39;;;;;;;5.33;3.70;;;19.00;34.10;;;;;;4994694;28;20230;-69
2022/06/11 03:28:19;;;;;;;7.17;4.20;;;18.90;38.20;;;;;;4995321;28;20664;-70
2022/06/11 03:30:46;;;;;;;8.43;3.80;;;18.90;40.40;;;;;;4995310;28;20241;-70
2022/06/11 03:33:12;;;;;;;5.25;3.78;;;18.90;40.80;;;;;;4995037;28;20254;-69
2022/06/11 03:35:37;;;;;;;4.73;3.83;;;18.80;44.60;;;;;;4994895;28;20631;-70
2022/06/11 03:38:07;;;;;;;4.73;3.63;;;18.80;43.30;;;;;;4994895;28;20588;-70
2022/06/11 03:40:33;;;;;;;5.93;4.23;;;18.70;49.60;;;;;;4994568;28;20194;-70
2022/06/11 03:42:59;;;;;;;6.33;4.10;;;18.80;48.80;;;;;;4994617;28;20639;-70
2022/06/11 03:45:25;;;;;;;6.40;3.50;;;18.80;43.80;;;;;;4995074;28;20171;-69
2022/06/11 03:47:50;;;;;;;4.83;3.73;;;18.80;45.10;;;;;;4994798;28;20718;-69
2022/06/11 03:50:20;;;;;;;3.80;3.37;;;18.80;41.50;;;;;;4994730;28;20514;-69
2022/06/11 03:52:46;;;;;;;4.87;3.40;;;18.80;42.90;;;;;;4994380;28;20650;-69
2022/06/11 03:55:12;;;;;;;8.25;4.05;;;18.90;41.20;;;;;;4994637;28;20226;-69
2022/06/11 03:57:38;;;;;;;4.30;3.73;;;18.90;39.30;;;;;;4994652;28;20171;-69
2022/06/11 04:00:07;;;;;;;4.70;3.55;;;18.90;37.00;;;;;;4994672;28;20180;-69
2022/06/11 04:02:33;;;;;;;5.20;3.65;;;18.90;40.70;;;;;;4994538;28;20182;-69
2022/06/11 04:04:58;;;;;;;5.27;3.50;;;18.90;38.70;;;;;;4993676;28;20175;-69
2022/06/11 04:07:24;;;;;;;4.90;3.20;;;18.80;34.40;;;;;;4994058;28;20175;-69
2022/06/11 04:09:50;;;;;;;6.68;3.13;;;18.80;32.50;;;;;;4994321;28;20203;-70
2022/06/11 04:12:16;;;;;;;5.88;2.83;;;18.80;30.90;;;;;;4994273;28;20171;-70
2022/06/11 04:14:44;;;;;;;3.55;2.80;;;18.70;23.10;;;;;;4994258;28;20222;-70
2022/06/11 04:17:31;;;;;;;4.25;3.13;;;18.70;27.30;;;;;;4994225;28;20541;-70
2022/06/11 04:19:57;;;;;;;4.82;3.40;;;18.70;26.30;;;;;;4994445;28;20179;-70
2022/06/11 04:22:23;;;;;;;3.03;2.60;;;18.70;31.20;;;;;;4993632;28;20568;-70
2022/06/11 04:24:49;;;;;;;3.13;2.50;;;18.80;27.10;;;;;;4993977;28;20219;-68
2022/06/11 04:27:17;;;;;;;5.00;3.00;;;18.60;23.10;;;;;;4994049;28;20180;-70
2022/06/11 04:29:50;;;;;;;7.00;3.20;;;18.60;26.60;;;;;;4994163;28;20700;-68
2022/06/11 04:32:17;;;;;;;6.33;2.70;;;18.60;22.50;;;;;;4993908;28;20199;-70
2022/06/11 04:34:45;;;;;;;4.78;2.88;;;18.60;21.70;;;;;;4993902;28;20210;-70
2022/06/11 04:37:14;;;;;;;3.50;2.70;;;18.50;21.50;;;;;;4993370;28;20198;-70
2022/06/11 04:39:42;;;;;;;3.55;2.53;;;18.50;21.90;;;;;;4993579;28;20194;-69
2022/06/11 04:42:11;;;;;;;5.38;2.80;;;18.60;9.60;;;;;;4993918;28;20179;-70
2022/06/11 04:44:38;;;;;;;3.53;2.40;;;18.60;3.40;;;;;;4993821;28;20179;-70
2022/06/11 04:47:04;;;;;;;5.45;2.25;;;18.50;2.00;;;;;;4993872;28;20171;-69
2022/06/11 04:49:29;;;;;;;2.88;1.95;;;18.40;1.00;;;;;;4992375;28;20265;-70
2022/06/11 04:51:55;;;;;;;3.50;2.17;;;18.60;1.00;;;;;;4993568;28;20257;-69
2022/06/11 04:54:21;;;;;;;8.65;2.63;;;18.70;1.00;;;;;;4993750;28;20187;-69
2022/06/11 04:56:46;;;;;;;5.32;2.33;;;18.60;1.00;;;;;;4993707;28;20174;-70
2022/06/11 04:59:12;;;;;;;5.00;2.35;;;18.60;1.00;;;;;;4993670;28;20622;-70
2022/06/11 05:01:39;;;;;;;7.47;2.25;;;18.70;1.00;;;;;;4993582;28;20697;-70
2022/06/11 05:04:05;;;;;;;6.05;2.13;;;18.90;1.00;;;;;;4993997;28;20170;-69
2022/06/11 05:06:35;;;;;;;6.30;2.38;;;19.30;1.00;;;;;;4993134;28;20605;-70
2022/06/11 05:09:02;;;;;;;5.13;2.10;;;19.60;1.00;;;;;;4993469;28;20198;-70
2022/06/11 05:11:28;;;;;;;6.45;2.20;;;19.70;1.00;;;;;;4993567;28;20175;-70
2022/06/11 05:13:53;;;;;;;5.70;2.53;;;19.70;1.00;;;;;;4993362;28;20179;-70
2022/06/11 05:16:20;;;;;;;5.38;2.15;;;19.60;1.00;;;;;;4994260;28;20594;-70
2022/06/11 05:18:46;;;;;;;7.35;2.83;;;19.50;1.00;;;;;;4997598;28;20178;-70
2022/06/11 05:21:12;;;;;;;4.78;2.00;;;19.20;1.00;;;;;;4997131;28;20176;-70
2022/06/11 05:23:37;;;;;;;5.43;2.47;;;19.10;1.00;;;;;;4997578;28;20250;-70
2022/06/11 05:26:03;;;;;;;6.88;2.20;;;18.90;1.00;;;;;;4996046;28;20321;-70
2022/06/11 05:28:31;;;;;;;5.60;2.10;;;18.70;1.00;;;;;;4997088;28;20242;-69
2022/06/11 05:30:58;;;;;;;7.40;2.38;;;18.80;1.00;;;;;;4997351;28;20168;-70
2022/06/11 05:33:24;;;;;;;6.43;2.45;;;19.00;1.00;;;;;;4997313;28;20254;-70
2022/06/11 05:35:52;;;;;;;6.82;2.30;;;19.00;1.00;;;;;;4997018;28;20219;-69
2022/06/11 05:38:22;;;;;;;3.90;2.00;;;19.00;1.00;;;;;;4997366;28;20182;-69
2022/06/11 05:40:49;;;;;;;9.43;2.22;;;19.20;1.00;;;;;;4996879;28;20199;-69
2022/06/11 05:43:16;;;;;;;5.50;1.98;;;19.20;1.00;;;;;;4996825;28;20195;-68
2022/06/11 05:45:52;;;;;;;6.95;2.50;;;18.90;1.00;;;;;;4997113;28;20177;-69
2022/06/11 05:48:22;;;;;;;6.80;2.20;;;18.70;1.00;;;;;;4997282;28;20171;-69
2022/06/11 05:50:50;;;;;;;8.85;2.90;;;18.70;1.00;;;;;;4996137;28;20183;-70
2022/06/11 05:53:19;;;;;;;7.28;2.50;;;18.80;1.00;;;;;;4996662;28;20167;-69
2022/06/11 05:55:47;;;;;;;6.13;2.60;;;19.00;1.00;;;;;;4996853;28;20249;-69
2022/06/11 05:58:19;;;;;;;11.25;2.75;;;19.40;1.00;;;;;;4995188;28;20199;-69
2022/06/11 06:00:46;;;;;;;9.10;2.45;;;19.70;1.00;;;;;;4996480;28;20217;-71
2022/06/11 06:03:12;;;;;;;10.27;2.50;;;19.90;1.00;;;;;;4996928;28;20194;-70
2022/06/11 06:05:39;;;;;;;9.65;2.55;;;20.10;99.90;;;;;;4996525;28;20215;-69
2022/06/11 06:08:05;;;;;;;9.88;2.55;;;20.10;1.00;;;;;;4996367;28;20221;-70
2022/06/11 06:10:31;;;;;;;8.63;2.67;;;20.00;1.00;;;;;;4996554;28;20198;-70
2022/06/11 06:12:57;;;;;;;10.60;2.80;;;19.60;1.00;;;;;;4996248;28;20193;-70
2022/06/11 06:15:26;;;;;;;10.77;2.67;;;19.30;1.00;;;;;;4996459;28;20277;-71
2022/06/11 06:17:53;;;;;;;8.40;2.83;;;18.90;85.70;;;;;;4996065;28;20167;-69
2022/06/11 06:20:20;;;;;;;7.07;2.53;;;18.90;99.90;;;;;;4996445;28;20690;-69
2022/06/11 06:22:47;;;;;;;7.00;2.30;;;18.90;99.90;;;;;;4996236;28;20300;-69
2022/06/11 06:25:17;;;;;;;9.48;2.92;;;18.80;99.90;;;;;;4995728;28;20246;-69
2022/06/11 06:27:43;;;;;;;10.70;2.97;;;18.70;1.00;;;;;;4995348;28;20253;-70
2022/06/11 06:30:09;;;;;;;9.30;2.63;;;18.70;1.00;;;;;;4995872;28;20211;-70
2022/06/11 06:32:35;;;;;;;9.80;3.20;;;18.70;1.00;;;;;;4995601;28;20171;-70
2022/06/11 06:35:01;;;;;;;8.73;2.67;;;18.50;1.00;;;;;;4995734;28;20309;-69
2022/06/11 06:37:27;;;;;;;9.50;2.80;;;18.60;1.00;;;;;;4996128;28;20257;-69
2022/06/11 06:39:52;;;;;;;7.45;2.75;;;19.40;1.00;;;;;;4995903;28;20584;-70
2022/06/11 06:42:18;;;;;;;6.78;2.53;;;20.40;1.00;;;;;;4995505;28;20670;-70
2022/06/11 06:44:44;;;;;;;7.20;2.67;;;20.70;1.00;;;;;;4995645;28;20575;-69
2022/06/11 06:47:09;;;;;;;8.65;2.67;;;20.60;1.00;;;;;;4994221;28;20179;-69
2022/06/11 06:49:35;;;;;;;10.80;2.75;;;20.70;99.90;;;;;;4996250;28;20175;-69
2022/06/11 06:52:01;;;;;;;8.93;3.40;;;20.90;1.00;;;;;;4995456;28;20587;-70
2022/06/11 06:54:27;;;;;;;9.27;2.78;;;21.20;1.00;;;;;;4995194;28;20179;-70
2022/06/11 06:56:52;;;;;;;14.68;3.45;;;21.40;46.50;;;;;;4995432;28;20234;-69
2022/06/11 06:59:18;;;;;;;10.63;2.75;;;21.00;1.00;;;;;;4995613;28;20582;-69
2022/06/11 07:01:45;;;;;;;9.77;3.20;;;20.80;1.00;;;;;;4993677;28;20635;-70
2022/06/11 07:04:11;;;;;;;10.05;3.10;;;20.90;1.00;;;;;;4995482;28;20193;-70
2022/06/11 07:06:37;;;;;;;9.35;3.13;;;21.10;99.90;;;;;;4995580;28;20257;-69
2022/06/11 07:09:03;;;;;;;8.38;3.05;;;21.90;1.00;;;;;;4995074;28;20238;-70
2022/06/11 07:11:30;;;;;;;10.63;3.55;;;22.10;1.00;;;;;;4994899;28;20176;-69
2022/06/11 07:13:55;;;;;;;8.95;3.30;;;22.20;1.00;;;;;;4995785;28;20207;-70
2022/06/11 07:16:28;;;;;;;8.55;3.13;;;22.80;1.00;;;;;;4995002;28;20238;-70
2022/06/11 07:19:01;;;;;;;10.63;2.88;;;23.90;99.90;;;;;;4995183;28;20171;-72
2022/06/11 07:21:30;;;;;;;8.48;2.97;;;24.70;1.00;;;;;;4994669;28;20210;-71
2022/06/11 07:24:00;;;;;;;8.45;3.10;;;26.40;1.00;;;;;;4994900;28;20322;-71
2022/06/11 07:26:36;;;;;;;9.00;2.67;;;27.10;99.90;;;;;;4995125;28;20666;-71
2022/06/11 07:29:16;;;;;;;10.10;3.30;;;27.20;99.90;;;;;;4994542;28;20171;-71
2022/06/11 07:31:45;;;;;;;4.60;2.38;;;26.80;99.90;;;;;;4994598;28;20174;-72
2022/06/11 07:34:13;;;;;;;9.88;3.10;;;26.30;99.90;;;;;;4994970;28;20176;-71
2022/06/11 07:36:39;;;;;;;7.57;2.70;;;26.70;99.90;;;;;;4994867;28;20219;-71
2022/06/11 07:39:05;;;;;;;10.63;3.42;;;26.50;99.90;;;;;;4994542;28;20163;-71
2022/06/11 07:41:30;;;;;;;7.80;3.08;;;26.00;99.90;;;;;;4993354;28;20666;-71
2022/06/11 07:43:56;;;;;;;8.95;2.88;;;26.60;99.90;;;;;;4994600;28;20222;-71
2022/06/11 07:46:22;;;;;;;7.35;2.88;;;26.70;99.90;;;;;;4994603;28;20662;-71
2022/06/11 07:48:48;;;;;;;7.07;2.60;;;26.40;99.90;;;;;;4994689;28;20611;-71
2022/06/11 07:51:18;;;;;;;7.22;2.63;;;26.90;99.90;;;;;;4994288;28;20586;-70
2022/06/11 07:53:45;;;;;;;9.05;3.03;;;27.90;99.90;;;;;;4993286;28;20171;-71
2022/06/11 07:56:10;;;;;;;7.90;2.47;;;28.00;99.90;;;;;;4994306;28;20222;-71
2022/06/11 07:58:36;;;;;;;6.90;3.15;;;27.80;99.90;;;;;;4992656;28;20516;-71
2022/06/11 08:01:16;;;;;;;10.02;3.28;;;28.60;99.90;;;;;;5110276;27;20610;-71
2022/06/11 08:03:42;;;;;;;6.72;2.60;;;29.20;99.90;;;;;;5111135;28;20201;-71
2022/06/11 08:06:08;;;;;;;7.53;2.80;;;30.30;99.90;;;;;;5110485;28;20584;-72
2022/06/11 08:08:34;;;;;;;7.10;3.00;;;29.60;99.90;;;;;;5110448;28;20201;-71
2022/06/11 08:11:02;;;;;;;7.03;2.47;;;28.80;99.90;;;;;;5110720;28;20170;-72
2022/06/11 08:13:28;;;;;;;7.00;2.97;;;28.60;99.90;;;;;;5110493;28;20228;-72
2022/06/11 08:15:55;;;;;;;10.60;2.83;;;28.50;99.90;;;;;;5110534;28;20164;-72
2022/06/11 08:18:22;;;;;;;6.00;2.50;;;28.40;99.90;;;;;;5110616;28;20167;-72
2022/06/11 08:20:49;;;;;;;7.65;2.65;;;28.30;99.90;;;;;;5110418;28;20206;-71
2022/06/11 08:23:15;;;;;;;6.70;2.42;;;28.10;99.90;;;;;;5110472;28;20167;-72
2022/06/11 08:25:41;;;;;;;7.57;2.88;;;28.00;99.90;;;;;;5110396;28;20645;-72
2022/06/11 08:28:10;;;;;;;8.00;2.78;;;28.50;99.90;;;;;;5110218;28;20167;-73
2022/06/11 08:30:36;;;;;;;8.23;2.58;;;29.80;99.90;;;;;;5109913;28;20167;-72
2022/06/11 08:33:02;;;;;;;7.68;2.40;;;31.00;99.90;;;;;;5110501;28;20173;-72
2022/06/11 08:35:30;;;;;;;6.10;2.83;;;30.60;99.90;;;;;;5110170;28;20171;-72
2022/06/11 08:37:56;;;;;;;4.95;2.33;;;30.30;99.90;;;;;;5110251;28;20168;-72
2022/06/11 08:40:27;;;;;;;5.57;2.80;;;30.70;99.90;;;;;;5109886;28;20665;-73
2022/06/11 08:43:17;;;;;;;5.10;2.63;;;30.60;99.90;;;;;;5109771;28;20168;-72
2022/06/11 08:45:46;;;;;;;4.88;2.75;;;31.40;99.90;;;;;;5110402;28;20174;-72
2022/06/11 08:48:24;;;;;;;5.45;2.70;;;31.60;99.90;;;;;;5109921;28;20176;-72
2022/06/11 08:51:12;;;;;;;5.15;2.50;;;30.90;99.90;;;;;;5109508;28;20172;-73
2022/06/11 08:53:39;;;;;;;7.10;2.83;;;31.00;99.90;;;;;;5109583;28;20175;-72
2022/06/11 08:56:12;;;;;;;7.18;2.80;;;30.80;99.90;;;;;;5109975;28;20171;-72
2022/06/11 08:59:08;;;;;;;7.05;3.08;;;30.10;99.90;;;;;;5109885;28;20198;-71
2022/06/11 09:01:43;;;;;;;6.95;3.13;;;30.40;99.90;;;;;;5109467;28;20286;-74
2022/06/11 09:04:26;;;;;;;6.18;2.45;;;30.50;99.90;;;;;;5109817;28;20167;-73
2022/06/11 09:07:12;;;;;;;7.75;3.00;;;30.90;99.90;;;;;;5109262;28;20260;-73
2022/06/11 09:10:00;;;;;;;7.85;2.90;;;31.60;99.90;;;;;;5109474;28;20187;-75
2022/06/11 09:13:01;;;;;;;7.80;2.95;;;33.20;99.90;;;;;;5096012;28;20255;-73
2022/06/11 09:15:45;;;;;;;5.28;2.45;;;34.00;99.90;;;;;;5096245;28;20190;-74
2022/06/11 09:18:46;;;;;;;6.57;2.85;;;34.40;97.10;;;;;;5095853;28;20200;-75
2022/06/11 09:21:45;;;;;;;7.85;2.88;;;34.60;96.50;;;;;;5095636;28;20187;-74
2022/06/11 09:24:29;;;;;;;8.35;2.72;;;34.70;92.00;;;;;;5095657;28;20199;-74
2022/06/11 09:27:04;;;;;;;6.57;2.65;;;33.70;88.30;;;;;;5095180;28;20643;-75
2022/06/11 09:29:51;;;;;;;5.20;2.72;;;33.40;90.70;;;;;;5095562;28;20525;-74
2022/06/11 09:32:35;;;;;;;4.90;2.05;;;32.80;93.90;;;;;;5095404;28;20635;-74
2022/06/11 09:35:22;;;;;;;4.82;2.30;;;33.50;90.00;;;;;;5095149;28;20211;-74
2022/06/11 09:38:05;;;;;;;8.43;2.28;;;32.90;90.10;;;;;;5095611;28;20172;-74
2022/06/11 09:40:47;;;;;;;6.43;2.50;;;32.40;90.00;;;;;;5094592;28;20200;-74
2022/06/11 09:43:51;;;;;;;6.72;2.58;;;32.50;91.10;;;;;;5095319;28;20164;-73
2022/06/11 09:46:32;;;;;;;8.55;2.80;;;31.30;93.20;;;;;;5012788;28;20189;-73
2022/06/11 09:49:16;;;;;;;5.80;2.33;;;31.60;94.70;;;;;;5013117;28;20186;-73
2022/06/11 09:51:44;;;;;;;5.70;2.53;;;30.20;99.60;;;;;;5012971;28;20235;-74
2022/06/11 09:54:19;;;;;;;4.10;2.40;;;31.30;99.90;;;;;;5013337;28;20183;-75
2022/06/11 09:56:47;;;;;;;5.07;2.35;;;32.70;95.90;;;;;;4996587;28;20181;-75
2022/06/11 09:59:32;;;;;;;5.55;2.63;;;32.30;93.90;;;;;;5011334;28;20238;-75
2022/06/11 10:02:21;;;;;;;6.00;2.72;;;33.00;93.60;;;;;;5012278;28;20189;-74
2022/06/11 10:04:48;;;;;;;5.10;2.53;;;32.20;93.20;;;;;;5012983;28;20510;-74
2022/06/11 10:07:19;;;;;;;5.00;2.47;;;32.00;93.80;;;;;;5012571;28;20590;-74
2022/06/11 10:09:48;;;;;;;3.80;2.40;;;32.10;93.00;;;;;;5012195;28;20206;-75
2022/06/11 10:12:36;;;;;;;5.50;2.70;;;32.10;90.30;;;;;;5012117;28;20175;-74
2022/06/11 10:15:05;;;;;;;7.25;2.63;;;32.70;92.50;;;;;;5012261;28;20187;-74
2022/06/11 10:17:44;;;;;;;6.65;2.67;;;33.20;85.00;;;;;;5012297;28;20175;-74
2022/06/11 10:20:34;;;;;;;4.47;2.08;;;33.30;85.60;;;;;;5051938;28;20239;-75
2022/06/11 10:23:08;;;;;;;5.72;2.30;;;32.50;84.10;;;;;;5092319;28;20172;-75
2022/06/11 10:25:59;;;;;;;5.25;2.15;;;31.50;84.70;;;;;;5093886;28;20175;-74
2022/06/11 10:28:35;;;;;;;5.03;2.30;;;31.40;91.40;;;;;;5094262;28;20221;-74
2022/06/11 10:31:20;;;;;;;4.15;2.47;;;31.00;91.30;;;;;;5093820;28;20190;-75
2022/06/11 10:34:05;;;;;;;4.70;2.35;;;31.60;92.80;;;;;;5093938;28;20627;-75
2022/06/11 10:36:36;;;;;;;6.40;2.22;;;31.70;91.50;;;;;;5094354;28;20167;-75
2022/06/11 10:39:26;;;;;;;4.00;2.30;;;31.70;90.80;;;;;;5093787;28;20637;-74
2022/06/11 10:42:14;;;;;;;4.38;2.38;;;31.70;92.10;;;;;;5094273;28;20164;-74
2022/06/11 10:44:52;;;;;;;6.55;2.47;;;31.00;91.80;;;;;;5093558;28;20221;-73
2022/06/11 10:47:25;;;;;;;6.68;2.50;;;30.90;95.30;;;;;;5092788;28;20630;-73
2022/06/11 10:50:11;;;;;;;4.80;2.20;;;31.00;95.40;;;;;;5093829;28;20217;-74
2022/06/11 10:52:58;;;;;;;3.83;2.05;;;31.10;95.10;;;;;;5079196;28;20257;-73
2022/06/11 10:55:33;;;;;;;5.50;2.38;;;31.80;93.80;;;;;;5093116;28;20172;-74
2022/06/11 10:58:07;;;;;;;6.88;2.72;;;31.70;91.30;;;;;;5093808;28;20167;-75
2022/06/11 11:00:51;;;;;;;4.70;2.10;;;30.70;96.10;;;;;;5093638;28;20226;-73
2022/06/11 11:03:34;;;;;;;4.00;1.83;;;29.90;96.00;;;;;;5093284;28;20183;-73
2022/06/11 11:06:04;;;;;;;3.78;1.88;;;29.80;98.60;;;;;;5093356;28;20199;-73
2022/06/11 11:08:30;;;;;;;4.38;2.05;;;29.30;99.90;;;;;;5093359;28;20179;-73
2022/06/11 11:10:58;;;;;;;4.18;1.83;;;29.90;99.90;;;;;;5093708;28;20615;-75
2022/06/11 11:13:44;;;;;;;4.28;2.17;;;30.30;99.90;;;;;;5093549;28;20184;-75
2022/06/11 11:16:13;;;;;;;4.63;2.20;;;29.30;99.90;;;;;;5093353;28;20538;-73
2022/06/11 11:19:03;;;;;;;5.68;2.55;;;29.70;99.90;;;;;;5093412;28;20639;-72
2022/06/11 11:22:03;;;;;;;7.82;2.50;;;29.20;99.90;;;;;;5092522;28;20180;-72
2022/06/11 11:24:35;;;;;;;8.57;2.58;;;28.20;99.90;;;;;;5075276;28;20180;-72
2022/06/11 11:27:11;;;;;;;6.93;2.53;;;27.30;99.90;;;;;;5092925;28;20662;-73
2022/06/11 11:29:47;;;;;;;6.78;2.92;;;26.80;99.90;;;;;;5093268;28;20214;-73
2022/06/11 11:32:33;;;;;;;10.23;4.60;;;27.30;99.90;;;;;;5093490;28;20171;-74
2022/06/11 11:35:17;;;;;;;4.13;1.98;;;28.20;99.90;;;;;;5091453;28;20172;-74
2022/06/11 11:37:44;;;;;;;3.80;1.90;;;28.30;99.90;;;;;;5092287;28;20172;-73
2022/06/11 11:40:29;;;;;;;5.88;3.00;;;28.50;99.90;;;;;;5092140;28;20208;-73
2022/06/11 11:42:57;;;;;;;5.15;2.13;;;29.10;99.90;;;;;;5093172;28;20160;-74
2022/06/11 11:45:39;;;;;;;7.13;2.00;;;29.60;99.90;;;;;;5091325;28;20579;-73
2022/06/11 11:48:07;;;;;;;3.30;1.80;;;28.90;99.90;;;;;;5092454;28;20584;-74
2022/06/11 11:50:39;;;;;;;2.28;1.70;;;28.50;99.90;;;;;;5092533;28;20262;-74
2022/06/11 11:53:18;;;;;;;5.10;2.10;;;27.90;99.90;;;;;;5092043;28;20164;-73
2022/06/11 11:55:57;;;;;;;3.72;1.80;;;27.30;99.90;;;;;;5092965;28;20218;-73
2022/06/11 11:58:49;;;;;;;5.97;2.45;;;27.70;99.90;;;;;;5092718;28;20217;-73
2022/06/11 12:01:17;;;;;;;7.07;2.33;;;27.50;99.90;;;;;;5092710;28;20278;-73
2022/06/11 12:03:47;;;;;;;4.47;2.25;;;27.80;99.90;;;;;;5092340;28;20221;-74
2022/06/11 12:06:24;;;;;;;5.38;2.33;;;27.80;99.90;;;;;;5091862;28;20507;-72
2022/06/11 12:08:53;;;;;;;4.43;2.20;;;27.80;99.90;;;;;;5092408;28;20297;-73
2022/06/11 12:11:27;;;;;;;7.22;2.47;;;27.80;99.90;;;;;;5092673;28;20180;-72
2022/06/11 12:13:59;;;;;;;4.88;1.95;;;27.70;99.90;;;;;;5092359;28;20163;-73
2022/06/11 12:16:26;;;;;;;7.60;2.80;;;27.50;99.90;;;;;;5091478;28;20267;-73
2022/06/11 12:19:11;;;;;;;7.10;2.40;;;27.50;99.90;;;;;;5092356;28;20176;-73
2022/06/11 12:21:42;;;;;;;6.38;2.20;;;27.30;99.90;;;;;;5091641;28;20531;-73
2022/06/11 12:24:21;;;;;;;8.80;2.55;;;26.80;99.90;;;;;;5091246;28;20178;-74
2022/06/11 12:26:54;;;;;;;5.53;2.10;;;26.50;99.90;;;;;;5092618;28;20207;-73
2022/06/11 12:29:31;;;;;;;5.22;2.40;;;26.40;99.90;;;;;;5092632;28;20197;-74
2022/06/11 12:32:00;;;;;;;8.07;2.30;;;26.40;99.90;;;;;;5091941;28;20183;-75
2022/06/11 12:34:29;;;;;;;8.98;2.65;;;26.40;99.90;;;;;;5092608;28;20169;-73
2022/06/11 12:37:18;;;;;;;7.03;2.55;;;26.50;99.90;;;;;;5091888;28;20168;-74
2022/06/11 12:39:52;;;;;;;10.60;2.72;;;26.80;99.90;;;;;;5092060;28;20286;-74
2022/06/11 12:42:44;;;;;;;7.63;2.28;;;26.40;99.90;;;;;;5092710;28;20167;-73
2022/06/11 12:45:35;;;;;;;5.15;1.90;;;26.50;99.90;;;;;;5081693;28;20753;-74
2022/06/11 12:48:38;;;;;;;5.88;2.10;;;26.60;99.90;;;;;;5096143;28;20305;-74
2022/06/11 12:51:37;;;;;;;5.90;1.98;;;26.20;99.90;;;;;;5096177;28;20194;-74
2022/06/11 12:54:10;;;;;;;4.15;2.05;;;26.20;99.90;;;;;;5095950;28;20285;-74
2022/06/11 12:57:04;;;;;;;5.28;2.45;;;26.40;99.90;;;;;;5096562;28;20168;-73
2022/06/11 13:00:11;;;;;;;8.50;2.40;;;26.40;99.90;;;;;;5086748;28;20314;-73
2022/06/11 13:02:55;;;;;;;4.43;1.92;;;26.20;99.90;;;;;;5095860;28;20187;-73
2022/06/11 13:05:26;;;;;;;4.10;1.88;;;26.20;99.90;;;;;;5095135;28;20182;-73
2022/06/11 13:08:10;;;;;;;5.72;2.33;;;26.10;99.90;;;;;;5096148;28;20251;-72
2022/06/11 13:11:00;;;;;;;7.65;2.25;;;25.90;99.90;;;;;;5095888;28;20225;-73
2022/06/11 13:13:40;;;;;;;5.72;2.20;;;26.00;99.90;;;;;;5095718;28;20165;-73
2022/06/11 13:16:15;;;;;;;6.93;2.30;;;25.90;99.90;;;;;;5095372;28;20175;-74
2022/06/11 13:19:18;;;;;;;5.38;2.10;;;26.10;99.90;;;;;;5095742;28;20171;-72
2022/06/11 13:22:12;;;;;;;5.40;2.35;;;25.60;1.00;;;;;;5091018;28;20198;-72